KSAD

Details ICAO KSAD
Name SAFFORD RGNL
Region United States
Timezone America/Phoenix (UTC-7.0)
Plans Departing 8
Arriving 8
Stats Elevation 3,176 ft / 968 m (AMSL)
Location 32.854185° -109.635497°
Runways 2
Magnetic Variation 9.414° E
Sunrise 2018-05-25 12:15:10 UTC / 2018-05-25 05:15:10 Local
Sunset 2018-05-26 02:18:43 UTC / 2018-05-25 19:18:43 Local
Advertisement - Login to hide

Runways

ID Width Length Bearing (true) Bearing (mag) Surface Threshold Offset Overrun Length
08 75 ft / 23 m 4,791 ft / 1,460 m 90.57° 81.16° Asphalt 0 ft / 0 m 0 ft / 0 m
12 100 ft / 30 m 6,019 ft / 1,835 m 135.48° 126.07° Asphalt 0 ft / 0 m 0 ft / 0 m
26 75 ft / 23 m 4,791 ft / 1,460 m 270.58° 261.17° Asphalt 0 ft / 0 m 0 ft / 0 m
30 100 ft / 30 m 6,019 ft / 1,835 m 315.49° 306.08° Asphalt 0 ft / 0 m 0 ft / 0 m

Map

Weather


0- 5 10 15 20 25 30 35+ Temperature / ° C

Clouds and Precipitation
Forecast for 2018-05-25 18:00 UTC. Updated 2 hours ago

Ground ~20,000 ft ~40,000 ft Winds

METAR

KSAD 251851Z AUTO VRB03KT 10SM CLR 33/M12 A3004 RMK AO2 SLP114 T03281122

TAF

Not found

Frequencies

Recorded 124.17 MHz ASOS
Unicom 122.80 MHz CTAF/UNICOM
Warning: Do not use this data for real-world aviation or navigation. No guarantee of current accuracy is given.